sensor_id;sensor_type;location;lat;lon;timestamp;temperature;humidity
18105;DHT22;9179;50.968;3.134;2023-06-26T00:06:36;21.10;99.90
18105;DHT22;9179;50.968;3.134;2023-06-26T00:09:04;21.00;99.90
18105;DHT22;9179;50.968;3.134;2023-06-26T00:11:30;21.10;99.90
18105;DHT22;9179;50.968;3.134;2023-06-26T00:13:58;21.10;99.90
18105;DHT22;9179;50.968;3.134;2023-06-26T00:16:26;21.10;99.90
18105;DHT22;9179;50.968;3.134;2023-06-26T00:18:53;21.10;99.90
18105;DHT22;9179;50.968;3.134;2023-06-26T00:21:20;21.00;99.90
18105;DHT22;9179;50.968;3.134;2023-06-26T00:23:48;20.90;99.90
18105;DHT22;9179;50.968;3.134;2023-06-26T00:26:15;20.90;99.90
18105;DHT22;9179;50.968;3.134;2023-06-26T00:28:42;20.90;99.90
18105;DHT22;9179;50.968;3.134;2023-06-26T00:31:09;20.90;99.90
18105;DHT22;9179;50.968;3.134;2023-06-26T00:33:36;20.80;99.90
18105;DHT22;9179;50.968;3.134;2023-06-26T00:36:03;20.80;99.90
18105;DHT22;9179;50.968;3.134;2023-06-26T00:38:30;20.70;99.90
18105;DHT22;9179;50.968;3.134;2023-06-26T00:40:58;20.70;99.90
18105;DHT22;9179;50.968;3.134;2023-06-26T00:43:25;20.70;99.90
18105;DHT22;9179;50.968;3.134;2023-06-26T00:45:52;20.60;99.90
18105;DHT22;9179;50.968;3.134;2023-06-26T00:48:19;20.50;99.90
18105;DHT22;9179;50.968;3.134;2023-06-26T00:50:46;20.50;99.90
18105;DHT22;9179;50.968;3.134;2023-06-26T00:53:13;20.40;99.90
18105;DHT22;9179;50.968;3.134;2023-06-26T00:55:40;20.40;99.90
18105;DHT22;9179;50.968;3.134;2023-06-26T00:58:08;20.20;99.90
18105;DHT22;9179;50.968;3.134;2023-06-26T01:00:35;20.10;99.90
18105;DHT22;9179;50.968;3.134;2023-06-26T01:03:02;20.00;99.90
18105;DHT22;9179;50.968;3.134;2023-06-26T01:05:29;19.90;99.90
18105;DHT22;9179;50.968;3.134;2023-06-26T01:07:57;19.90;99.90
18105;DHT22;9179;50.968;3.134;2023-06-26T01:10:24;19.80;99.90
18105;DHT22;9179;50.968;3.134;2023-06-26T01:12:53;19.80;99.90
18105;DHT22;9179;50.968;3.134;2023-06-26T01:15:21;19.80;99.90
18105;DHT22;9179;50.968;3.134;2023-06-26T01:17:49;19.70;99.90
18105;DHT22;9179;50.968;3.134;2023-06-26T01:20:17;19.60;99.90
18105;DHT22;9179;50.968;3.134;2023-06-26T01:22:48;19.50;99.90
18105;DHT22;9179;50.968;3.134;2023-06-26T01:25:29;19.40;99.90
18105;DHT22;9179;50.968;3.134;2023-06-26T01:28:06;19.40;99.90
18105;DHT22;9179;50.968;3.134;2023-06-26T01:30:34;19.30;99.90
18105;DHT22;9179;50.968;3.134;2023-06-26T01:33:02;19.30;99.90
18105;DHT22;9179;50.968;3.134;2023-06-26T01:35:29;19.20;99.90
18105;DHT22;9179;50.968;3.134;2023-06-26T01:38:12;19.10;99.90
18105;DHT22;9179;50.968;3.134;2023-06-26T01:40:39;19.10;99.90
18105;DHT22;9179;50.968;3.134;2023-06-26T01:43:17;19.00;99.90
18105;DHT22;9179;50.968;3.134;2023-06-26T01:45:46;19.00;99.90
18105;DHT22;9179;50.968;3.134;2023-06-26T01:48:16;18.90;99.90
18105;DHT22;9179;50.968;3.134;2023-06-26T01:50:48;18.90;99.90
18105;DHT22;9179;50.968;3.134;2023-06-26T01:53:18;18.80;99.90
18105;DHT22;9179;50.968;3.134;2023-06-26T01:55:48;18.80;99.90
18105;DHT22;9179;50.968;3.134;2023-06-26T01:58:20;18.80;99.90
18105;DHT22;9179;50.968;3.134;2023-06-26T02:00:49;18.80;99.90
18105;DHT22;9179;50.968;3.134;2023-06-26T02:03:16;18.70;99.90
18105;DHT22;9179;50.968;3.134;2023-06-26T02:05:43;18.70;99.90
18105;DHT22;9179;50.968;3.134;2023-06-26T02:08:14;18.60;99.90
18105;DHT22;9179;50.968;3.134;2023-06-26T02:10:41;18.50;99.90
18105;DHT22;9179;50.968;3.134;2023-06-26T02:13:08;18.50;99.90
18105;DHT22;9179;50.968;3.134;2023-06-26T02:15:36;18.50;99.90
18105;DHT22;9179;50.968;3.134;2023-06-26T02:18:03;18.40;99.90
18105;DHT22;9179;50.968;3.134;2023-06-26T02:20:30;18.40;99.90
18105;DHT22;9179;50.968;3.134;2023-06-26T02:22:58;18.30;99.90
18105;DHT22;9179;50.968;3.134;2023-06-26T02:25:25;18.30;99.90
18105;DHT22;9179;50.968;3.134;2023-06-26T02:27:52;18.20;99.90
18105;DHT22;9179;50.968;3.134;2023-06-26T02:30:20;18.20;99.90
18105;DHT22;9179;50.968;3.134;2023-06-26T02:32:49;18.20;99.90
18105;DHT22;9179;50.968;3.134;2023-06-26T02:35:16;18.10;99.90
18105;DHT22;9179;50.968;3.134;2023-06-26T02:37:42;18.10;99.90
18105;DHT22;9179;50.968;3.134;2023-06-26T02:40:10;18.00;99.90
18105;DHT22;9179;50.968;3.134;2023-06-26T02:42:37;18.00;99.90
18105;DHT22;9179;50.968;3.134;2023-06-26T02:45:05;18.00;99.90
18105;DHT22;9179;50.968;3.134;2023-06-26T02:47:31;17.90;99.90
18105;DHT22;9179;50.968;3.134;2023-06-26T02:50:00;17.90;99.90
18105;DHT22;9179;50.968;3.134;2023-06-26T02:52:27;17.80;99.90
18105;DHT22;9179;50.968;3.134;2023-06-26T02:54:54;17.80;99.90
18105;DHT22;9179;50.968;3.134;2023-06-26T02:57:21;17.80;99.90
18105;DHT22;9179;50.968;3.134;2023-06-26T02:59:48;17.70;99.90
18105;DHT22;9179;50.968;3.134;2023-06-26T03:02:14;17.70;99.90
18105;DHT22;9179;50.968;3.134;2023-06-26T03:04:41;17.70;99.90
18105;DHT22;9179;50.968;3.134;2023-06-26T03:07:10;17.60;99.90
18105;DHT22;9179;50.968;3.134;2023-06-26T03:09:36;17.60;99.90
18105;DHT22;9179;50.968;3.134;2023-06-26T03:12:04;17.60;99.90
18105;DHT22;9179;50.968;3.134;2023-06-26T03:14:31;17.50;99.90
18105;DHT22;9179;50.968;3.134;2023-06-26T03:16:58;17.50;99.90
18105;DHT22;9179;50.968;3.134;2023-06-26T03:19:29;17.40;99.90
18105;DHT22;9179;50.968;3.134;2023-06-26T03:21:55;17.40;99.90
18105;DHT22;9179;50.968;3.134;2023-06-26T03:24:24;17.40;99.90
18105;DHT22;9179;50.968;3.134;2023-06-26T03:26:51;17.40;99.90
18105;DHT22;9179;50.968;3.134;2023-06-26T03:29:18;17.40;99.90
18105;DHT22;9179;50.968;3.134;2023-06-26T03:31:44;17.40;99.90
18105;DHT22;9179;50.968;3.134;2023-06-26T03:34:11;17.30;99.90
18105;DHT22;9179;50.968;3.134;2023-06-26T03:36:41;17.30;99.90
18105;DHT22;9179;50.968;3.134;2023-06-26T03:39:08;17.20;99.90
18105;DHT22;9179;50.968;3.134;2023-06-26T03:41:37;17.20;99.90
18105;DHT22;9179;50.968;3.134;2023-06-26T03:44:04;17.20;99.90
18105;DHT22;9179;50.968;3.134;2023-06-26T03:46:30;17.20;99.90
18105;DHT22;9179;50.968;3.134;2023-06-26T03:48:57;17.10;99.90
18105;DHT22;9179;50.968;3.134;2023-06-26T03:51:24;17.10;99.90
18105;DHT22;9179;50.968;3.134;2023-06-26T03:53:51;17.20;99.90
18105;DHT22;9179;50.968;3.134;2023-06-26T03:56:18;17.20;99.90
18105;DHT22;9179;50.968;3.134;2023-06-26T03:58:47;17.10;99.90
18105;DHT22;9179;50.968;3.134;2023-06-26T04:01:13;17.20;99.90
18105;DHT22;9179;50.968;3.134;2023-06-26T04:03:40;17.20;99.90
18105;DHT22;9179;50.968;3.134;2023-06-26T04:06:07;17.30;99.90
18105;DHT22;9179;50.968;3.134;2023-06-26T04:08:35;17.30;99.90
18105;DHT22;9179;50.968;3.134;2023-06-26T04:11:02;17.30;99.90
18105;DHT22;9179;50.968;3.134;2023-06-26T04:13:29;17.40;99.90
18105;DHT22;9179;50.968;3.134;2023-06-26T04:15:58;17.40;99.90
18105;DHT22;9179;50.968;3.134;2023-06-26T04:18:24;17.40;99.90
18105;DHT22;9179;50.968;3.134;2023-06-26T04:21:06;17.50;99.90
18105;DHT22;9179;50.968;3.134;2023-06-26T04:23:33;17.50;99.90
18105;DHT22;9179;50.968;3.134;2023-06-26T04:26:00;17.70;99.90
18105;DHT22;9179;50.968;3.134;2023-06-26T04:28:30;17.80;99.90
18105;DHT22;9179;50.968;3.134;2023-06-26T04:30:58;17.90;99.90
18105;DHT22;9179;50.968;3.134;2023-06-26T04:33:25;18.20;99.90
18105;DHT22;9179;50.968;3.134;2023-06-26T04:35:52;18.50;99.90
18105;DHT22;9179;50.968;3.134;2023-06-26T04:38:19;18.80;99.90
18105;DHT22;9179;50.968;3.134;2023-06-26T04:40:47;19.10;99.90
18105;DHT22;9179;50.968;3.134;2023-06-26T04:43:14;19.40;99.90
18105;DHT22;9179;50.968;3.134;2023-06-26T04:45:41;19.40;99.90
18105;DHT22;9179;50.968;3.134;2023-06-26T04:48:09;19.50;99.90
18105;DHT22;9179;50.968;3.134;2023-06-26T04:50:36;19.80;99.90
18105;DHT22;9179;50.968;3.134;2023-06-26T04:53:03;20.20;99.90
18105;DHT22;9179;50.968;3.134;2023-06-26T04:55:30;20.70;99.90
18105;DHT22;9179;50.968;3.134;2023-06-26T04:57:57;21.00;99.90
18105;DHT22;9179;50.968;3.134;2023-06-26T05:00:24;21.20;99.90
18105;DHT22;9179;50.968;3.134;2023-06-26T05:02:51;21.30;99.90
18105;DHT22;9179;50.968;3.134;2023-06-26T05:05:27;21.60;99.90
18105;DHT22;9179;50.968;3.134;2023-06-26T05:07:55;22.20;99.90
18105;DHT22;9179;50.968;3.134;2023-06-26T05:10:22;22.40;99.90
18105;DHT22;9179;50.968;3.134;2023-06-26T05:12:49;22.60;99.90
18105;DHT22;9179;50.968;3.134;2023-06-26T05:15:16;23.00;99.90
18105;DHT22;9179;50.968;3.134;2023-06-26T05:17:43;23.00;99.90
18105;DHT22;9179;50.968;3.134;2023-06-26T05:20:10;23.10;99.90
18105;DHT22;9179;50.968;3.134;2023-06-26T05:22:39;23.40;99.90
18105;DHT22;9179;50.968;3.134;2023-06-26T05:25:09;23.80;99.90
18105;DHT22;9179;50.968;3.134;2023-06-26T05:27:37;23.90;99.90
18105;DHT22;9179;50.968;3.134;2023-06-26T05:30:04;24.10;99.90
18105;DHT22;9179;50.968;3.134;2023-06-26T05:32:34;24.50;99.90
18105;DHT22;9179;50.968;3.134;2023-06-26T05:35:02;24.50;99.90
18105;DHT22;9179;50.968;3.134;2023-06-26T05:37:31;24.60;99.90
18105;DHT22;9179;50.968;3.134;2023-06-26T05:40:00;24.90;99.90
18105;DHT22;9179;50.968;3.134;2023-06-26T05:42:29;25.50;99.90
18105;DHT22;9179;50.968;3.134;2023-06-26T05:44:56;25.60;99.90
18105;DHT22;9179;50.968;3.134;2023-06-26T05:47:23;25.20;99.90
18105;DHT22;9179;50.968;3.134;2023-06-26T05:49:49;25.10;99.90
18105;DHT22;9179;50.968;3.134;2023-06-26T05:52:17;25.20;99.90
18105;DHT22;9179;50.968;3.134;2023-06-26T05:54:44;25.60;99.90
18105;DHT22;9179;50.968;3.134;2023-06-26T05:57:13;25.70;99.70
18105;DHT22;9179;50.968;3.134;2023-06-26T05:59:43;25.90;99.40
18105;DHT22;9179;50.968;3.134;2023-06-26T06:02:10;26.50;98.40
18105;DHT22;9179;50.968;3.134;2023-06-26T06:04:37;26.70;97.60
18105;DHT22;9179;50.968;3.134;2023-06-26T06:07:05;27.20;96.90
18105;DHT22;9179;50.968;3.134;2023-06-26T06:09:31;26.80;95.60
18105;DHT22;9179;50.968;3.134;2023-06-26T06:11:59;26.00;95.80
18105;DHT22;9179;50.968;3.134;2023-06-26T06:14:28;25.90;96.50
18105;DHT22;9179;50.968;3.134;2023-06-26T06:16:55;25.90;96.10
18105;DHT22;9179;50.968;3.134;2023-06-26T06:19:22;26.40;96.40
18105;DHT22;9179;50.968;3.134;2023-06-26T06:21:49;27.10;95.60
18105;DHT22;9179;50.968;3.134;2023-06-26T06:24:16;27.30;94.50
18105;DHT22;9179;50.968;3.134;2023-06-26T06:26:43;27.50;94.40
18105;DHT22;9179;50.968;3.134;2023-06-26T06:29:09;28.00;93.30
18105;DHT22;9179;50.968;3.134;2023-06-26T06:31:38;28.40;92.80
18105;DHT22;9179;50.968;3.134;2023-06-26T06:34:05;28.30;92.00
18105;DHT22;9179;50.968;3.134;2023-06-26T06:36:32;28.10;91.70
18105;DHT22;9179;50.968;3.134;2023-06-26T06:38:59;27.50;91.40
18105;DHT22;9179;50.968;3.134;2023-06-26T06:41:26;27.40;92.20
18105;DHT22;9179;50.968;3.134;2023-06-26T06:43:52;27.90;92.00
18105;DHT22;9179;50.968;3.134;2023-06-26T06:46:20;28.20;90.70
18105;DHT22;9179;50.968;3.134;2023-06-26T06:48:48;28.60;90.90
18105;DHT22;9179;50.968;3.134;2023-06-26T06:51:15;29.10;89.80
18105;DHT22;9179;50.968;3.134;2023-06-26T06:53:42;29.70;89.30
18105;DHT22;9179;50.968;3.134;2023-06-26T06:56:09;29.80;86.60
18105;DHT22;9179;50.968;3.134;2023-06-26T06:58:36;29.30;86.00
18105;DHT22;9179;50.968;3.134;2023-06-26T07:01:02;29.50;86.80
18105;DHT22;9179;50.968;3.134;2023-06-26T07:03:35;29.50;84.90
18105;DHT22;9179;50.968;3.134;2023-06-26T07:06:04;28.60;85.10
18105;DHT22;9179;50.968;3.134;2023-06-26T07:08:31;28.60;85.80
18105;DHT22;9179;50.968;3.134;2023-06-26T07:10:58;28.30;85.60
18105;DHT22;9179;50.968;3.134;2023-06-26T07:13:25;28.40;85.20
18105;DHT22;9179;50.968;3.134;2023-06-26T07:15:52;28.60;86.30
18105;DHT22;9179;50.968;3.134;2023-06-26T07:18:18;28.90;83.90
18105;DHT22;9179;50.968;3.134;2023-06-26T07:20:45;28.80;83.50
18105;DHT22;9179;50.968;3.134;2023-06-26T07:23:14;28.50;83.30
18105;DHT22;9179;50.968;3.134;2023-06-26T07:25:40;28.70;84.50
18105;DHT22;9179;50.968;3.134;2023-06-26T07:28:10;28.90;83.10
18105;DHT22;9179;50.968;3.134;2023-06-26T07:30:37;28.70;82.60
18105;DHT22;9179;50.968;3.134;2023-06-26T07:33:04;29.10;83.00
18105;DHT22;9179;50.968;3.134;2023-06-26T07:35:31;28.90;82.00
18105;DHT22;9179;50.968;3.134;2023-06-26T07:37:58;28.30;83.50
18105;DHT22;9179;50.968;3.134;2023-06-26T07:40:27;29.10;84.30
18105;DHT22;9179;50.968;3.134;2023-06-26T07:42:54;30.00;82.60
18105;DHT22;9179;50.968;3.134;2023-06-26T07:45:21;30.50;79.90
18105;DHT22;9179;50.968;3.134;2023-06-26T07:47:47;30.00;78.50
18105;DHT22;9179;50.968;3.134;2023-06-26T07:50:14;29.90;78.70
18105;DHT22;9179;50.968;3.134;2023-06-26T07:52:47;30.20;77.70
18105;DHT22;9179;50.968;3.134;2023-06-26T07:55:13;30.00;76.00
18105;DHT22;9179;50.968;3.134;2023-06-26T07:57:42;29.50;78.30
18105;DHT22;9179;50.968;3.134;2023-06-26T08:00:09;30.80;76.90
18105;DHT22;9179;50.968;3.134;2023-06-26T08:02:37;30.80;75.60
18105;DHT22;9179;50.968;3.134;2023-06-26T08:05:04;30.30;77.30
18105;DHT22;9179;50.968;3.134;2023-06-26T08:07:31;31.70;75.90
18105;DHT22;9179;50.968;3.134;2023-06-26T08:09:58;32.50;73.10
18105;DHT22;9179;50.968;3.134;2023-06-26T08:12:25;30.20;71.70
18105;DHT22;9179;50.968;3.134;2023-06-26T08:14:53;30.80;73.20
18105;DHT22;9179;50.968;3.134;2023-06-26T08:17:20;32.00;71.20
18105;DHT22;9179;50.968;3.134;2023-06-26T08:19:47;31.60;69.90
18105;DHT22;9179;50.968;3.134;2023-06-26T08:22:14;29.90;71.20
18105;DHT22;9179;50.968;3.134;2023-06-26T08:24:41;28.70;72.70
18105;DHT22;9179;50.968;3.134;2023-06-26T08:27:08;29.40;74.40
18105;DHT22;9179;50.968;3.134;2023-06-26T08:29:35;31.00;72.10
18105;DHT22;9179;50.968;3.134;2023-06-26T08:32:04;32.30;71.20
18105;DHT22;9179;50.968;3.134;2023-06-26T08:34:31;32.00;67.70
18105;DHT22;9179;50.968;3.134;2023-06-26T08:36:58;31.60;68.10
18105;DHT22;9179;50.968;3.134;2023-06-26T08:39:25;30.80;68.70
18105;DHT22;9179;50.968;3.134;2023-06-26T08:41:52;29.80;70.00
18105;DHT22;9179;50.968;3.134;2023-06-26T08:44:19;28.50;71.60
18105;DHT22;9179;50.968;3.134;2023-06-26T08:46:50;27.30;73.70
18105;DHT22;9179;50.968;3.134;2023-06-26T08:49:21;27.50;76.50
18105;DHT22;9179;50.968;3.134;2023-06-26T08:51:55;28.10;75.60
18105;DHT22;9179;50.968;3.134;2023-06-26T08:54:27;28.50;74.90
18105;DHT22;9179;50.968;3.134;2023-06-26T08:56:55;29.30;74.50
18105;DHT22;9179;50.968;3.134;2023-06-26T08:59:22;30.80;72.60
18105;DHT22;9179;50.968;3.134;2023-06-26T09:01:50;30.90;69.60
18105;DHT22;9179;50.968;3.134;2023-06-26T09:04:19;31.20;69.00
18105;DHT22;9179;50.968;3.134;2023-06-26T09:06:45;31.60;66.80
18105;DHT22;9179;50.968;3.134;2023-06-26T09:09:12;32.30;66.60
18105;DHT22;9179;50.968;3.134;2023-06-26T09:11:39;32.80;64.10
18105;DHT22;9179;50.968;3.134;2023-06-26T09:14:07;32.90;63.50
18105;DHT22;9179;50.968;3.134;2023-06-26T09:16:39;33.20;61.50
18105;DHT22;9179;50.968;3.134;2023-06-26T09:19:09;33.60;61.70
18105;DHT22;9179;50.968;3.134;2023-06-26T09:21:39;34.10;60.70
18105;DHT22;9179;50.968;3.134;2023-06-26T09:24:07;34.20;59.60
18105;DHT22;9179;50.968;3.134;2023-06-26T09:26:35;34.00;59.20
18105;DHT22;9179;50.968;3.134;2023-06-26T09:29:02;34.00;58.80
18105;DHT22;9179;50.968;3.134;2023-06-26T09:31:30;33.60;59.50
18105;DHT22;9179;50.968;3.134;2023-06-26T09:33:58;33.70;58.20
18105;DHT22;9179;50.968;3.134;2023-06-26T09:36:29;34.00;59.20
18105;DHT22;9179;50.968;3.134;2023-06-26T09:39:00;34.30;58.50
18105;DHT22;9179;50.968;3.134;2023-06-26T09:41:27;33.00;58.70
18105;DHT22;9179;50.968;3.134;2023-06-26T09:43:54;33.60;59.10
18105;DHT22;9179;50.968;3.134;2023-06-26T09:46:28;34.00;57.60
18105;DHT22;9179;50.968;3.134;2023-06-26T09:49:01;32.70;57.30
18105;DHT22;9179;50.968;3.134;2023-06-26T09:51:29;30.90;59.30
18105;DHT22;9179;50.968;3.134;2023-06-26T09:53:57;31.00;62.10
18105;DHT22;9179;50.968;3.134;2023-06-26T09:56:27;31.70;60.10
18105;DHT22;9179;50.968;3.134;2023-06-26T09:58:56;30.50;60.50
18105;DHT22;9179;50.968;3.134;2023-06-26T10:01:23;29.30;62.20
18105;DHT22;9179;50.968;3.134;2023-06-26T10:03:51;28.70;64.20
18105;DHT22;9179;50.968;3.134;2023-06-26T10:06:26;28.30;64.80
18105;DHT22;9179;50.968;3.134;2023-06-26T10:08:56;28.90;65.40
18105;DHT22;9179;50.968;3.134;2023-06-26T10:11:31;28.90;64.60
18105;DHT22;9179;50.968;3.134;2023-06-26T10:14:01;30.10;64.80
18105;DHT22;9179;50.968;3.134;2023-06-26T10:16:31;31.90;63.10
18105;DHT22;9179;50.968;3.134;2023-06-26T10:19:04;33.80;60.50
18105;DHT22;9179;50.968;3.134;2023-06-26T10:21:34;34.90;58.10
18105;DHT22;9179;50.968;3.134;2023-06-26T10:24:03;35.10;57.10
18105;DHT22;9179;50.968;3.134;2023-06-26T10:26:36;35.10;56.40
18105;DHT22;9179;50.968;3.134;2023-06-26T10:29:05;34.70;55.20
18105;DHT22;9179;50.968;3.134;2023-06-26T10:31:34;32.70;56.40
18105;DHT22;9179;50.968;3.134;2023-06-26T10:34:02;31.10;57.70
18105;DHT22;9179;50.968;3.134;2023-06-26T10:36:31;29.80;58.50
18105;DHT22;9179;50.968;3.134;2023-06-26T10:39:03;28.70;60.80
18105;DHT22;9179;50.968;3.134;2023-06-26T10:41:38;27.90;62.60
18105;DHT22;9179;50.968;3.134;2023-06-26T10:44:09;27.80;63.20
18105;DHT22;9179;50.968;3.134;2023-06-26T10:46:50;29.40;63.30
18105;DHT22;9179;50.968;3.134;2023-06-26T10:49:18;31.80;59.80
18105;DHT22;9179;50.968;3.134;2023-06-26T10:51:49;33.90;58.50
18105;DHT22;9179;50.968;3.134;2023-06-26T10:54:17;34.40;56.20
18105;DHT22;9179;50.968;3.134;2023-06-26T10:56:46;34.80;55.60
18105;DHT22;9179;50.968;3.134;2023-06-26T10:59:15;34.20;55.30
18105;DHT22;9179;50.968;3.134;2023-06-26T11:01:43;32.80;55.70
18105;DHT22;9179;50.968;3.134;2023-06-26T11:04:12;32.40;55.90
18105;DHT22;9179;50.968;3.134;2023-06-26T11:06:40;32.40;55.80
18105;DHT22;9179;50.968;3.134;2023-06-26T11:09:09;31.40;56.70
18105;DHT22;9179;50.968;3.134;2023-06-26T11:12:00;29.60;58.80
18105;DHT22;9179;50.968;3.134;2023-06-26T11:14:33;28.90;62.20
18105;DHT22;9179;50.968;3.134;2023-06-26T11:17:03;30.60;61.10
18105;DHT22;9179;50.968;3.134;2023-06-26T11:19:30;32.20;58.60
18105;DHT22;9179;50.968;3.134;2023-06-26T11:22:04;33.00;57.00
18105;DHT22;9179;50.968;3.134;2023-06-26T11:24:31;34.30;56.70
18105;DHT22;9179;50.968;3.134;2023-06-26T11:27:04;33.10;55.90
18105;DHT22;9179;50.968;3.134;2023-06-26T11:29:32;31.90;57.40
18105;DHT22;9179;50.968;3.134;2023-06-26T11:32:04;32.60;58.20
18105;DHT22;9179;50.968;3.134;2023-06-26T11:34:33;33.80;57.00
18105;DHT22;9179;50.968;3.134;2023-06-26T11:37:00;32.90;55.80
18105;DHT22;9179;50.968;3.134;2023-06-26T11:39:30;31.70;56.90
18105;DHT22;9179;50.968;3.134;2023-06-26T11:41:57;31.00;57.50
18105;DHT22;9179;50.968;3.134;2023-06-26T11:44:29;29.60;58.30
18105;DHT22;9179;50.968;3.134;2023-06-26T11:46:57;28.50;60.10
18105;DHT22;9179;50.968;3.134;2023-06-26T11:49:24;27.90;61.30
18105;DHT22;9179;50.968;3.134;2023-06-26T11:51:53;27.50;62.20
18105;DHT22;9179;50.968;3.134;2023-06-26T11:54:25;28.50;63.40
18105;DHT22;9179;50.968;3.134;2023-06-26T11:56:53;30.40;60.70
18105;DHT22;9179;50.968;3.134;2023-06-26T11:59:22;32.20;58.90
18105;DHT22;9179;50.968;3.134;2023-06-26T12:01:50;32.70;57.10
18105;DHT22;9179;50.968;3.134;2023-06-26T12:04:18;31.50;57.20
18105;DHT22;9179;50.968;3.134;2023-06-26T12:06:47;30.20;58.20
18105;DHT22;9179;50.968;3.134;2023-06-26T12:09:17;28.90;60.30
18105;DHT22;9179;50.968;3.134;2023-06-26T12:11:46;28.30;60.90
18105;DHT22;9179;50.968;3.134;2023-06-26T12:14:14;28.20;61.60
18105;DHT22;9179;50.968;3.134;2023-06-26T12:16:42;28.00;62.20
18105;DHT22;9179;50.968;3.134;2023-06-26T12:19:11;29.50;62.50
18105;DHT22;9179;50.968;3.134;2023-06-26T12:21:46;31.40;61.00
18105;DHT22;9179;50.968;3.134;2023-06-26T12:24:16;32.20;58.60
18105;DHT22;9179;50.968;3.134;2023-06-26T12:26:44;31.10;58.30
18105;DHT22;9179;50.968;3.134;2023-06-26T12:29:12;30.80;59.10
18105;DHT22;9179;50.968;3.134;2023-06-26T12:31:43;31.20;59.50
18105;DHT22;9179;50.968;3.134;2023-06-26T12:34:13;29.90;60.40
18105;DHT22;9179;50.968;3.134;2023-06-26T12:36:43;28.90;62.30
18105;DHT22;9179;50.968;3.134;2023-06-26T12:39:11;30.40;62.90
18105;DHT22;9179;50.968;3.134;2023-06-26T12:41:48;30.60;60.10
18105;DHT22;9179;50.968;3.134;2023-06-26T12:44:20;30.20;59.90
18105;DHT22;9179;50.968;3.134;2023-06-26T12:46:48;31.50;60.10
18105;DHT22;9179;50.968;3.134;2023-06-26T12:49:17;33.00;58.70
18105;DHT22;9179;50.968;3.134;2023-06-26T12:51:45;32.40;58.10
18105;DHT22;9179;50.968;3.134;2023-06-26T12:54:12;32.20;57.30
18105;DHT22;9179;50.968;3.134;2023-06-26T12:56:39;30.60;56.70
18105;DHT22;9179;50.968;3.134;2023-06-26T12:59:06;29.30;57.60
18105;DHT22;9179;50.968;3.134;2023-06-26T13:01:33;29.50;58.00
18105;DHT22;9179;50.968;3.134;2023-06-26T13:04:00;29.20;57.50
18105;DHT22;9179;50.968;3.134;2023-06-26T13:06:28;29.80;57.80
18105;DHT22;9179;50.968;3.134;2023-06-26T13:08:55;30.10;57.20
18105;DHT22;9179;50.968;3.134;2023-06-26T13:11:22;30.00;56.50
18105;DHT22;9179;50.968;3.134;2023-06-26T13:13:48;30.00;56.90
18105;DHT22;9179;50.968;3.134;2023-06-26T13:16:16;30.20;56.70
18105;DHT22;9179;50.968;3.134;2023-06-26T13:18:44;29.40;57.40
18105;DHT22;9179;50.968;3.134;2023-06-26T13:21:11;29.30;57.90
18105;DHT22;9179;50.968;3.134;2023-06-26T13:23:39;28.80;58.20
18105;DHT22;9179;50.968;3.134;2023-06-26T13:26:07;28.50;59.00
18105;DHT22;9179;50.968;3.134;2023-06-26T13:28:34;29.50;58.80
18105;DHT22;9179;50.968;3.134;2023-06-26T13:31:00;30.40;57.90
18105;DHT22;9179;50.968;3.134;2023-06-26T13:33:27;32.50;55.90
18105;DHT22;9179;50.968;3.134;2023-06-26T13:35:54;32.10;55.00
18105;DHT22;9179;50.968;3.134;2023-06-26T13:38:22;30.70;56.20
18105;DHT22;9179;50.968;3.134;2023-06-26T13:40:52;29.80;57.60
18105;DHT22;9179;50.968;3.134;2023-06-26T13:43:20;29.60;58.30
18105;DHT22;9179;50.968;3.134;2023-06-26T13:45:48;29.70;58.20
18105;DHT22;9179;50.968;3.134;2023-06-26T13:48:15;29.70;58.20
18105;DHT22;9179;50.968;3.134;2023-06-26T13:50:42;30.30;57.90
18105;DHT22;9179;50.968;3.134;2023-06-26T13:53:09;30.90;57.10
18105;DHT22;9179;50.968;3.134;2023-06-26T13:55:36;30.70;57.30
18105;DHT22;9179;50.968;3.134;2023-06-26T13:58:05;31.00;56.60
18105;DHT22;9179;50.968;3.134;2023-06-26T14:00:33;30.50;56.50
18105;DHT22;9179;50.968;3.134;2023-06-26T14:03:00;30.10;57.20
18105;DHT22;9179;50.968;3.134;2023-06-26T14:05:28;30.50;56.70
18105;DHT22;9179;50.968;3.134;2023-06-26T14:07:55;30.10;57.10
18105;DHT22;9179;50.968;3.134;2023-06-26T14:10:22;30.30;57.40
18105;DHT22;9179;50.968;3.134;2023-06-26T14:12:50;29.10;57.30
18105;DHT22;9179;50.968;3.134;2023-06-26T14:15:18;28.20;59.10
18105;DHT22;9179;50.968;3.134;2023-06-26T14:17:45;27.50;60.40
18105;DHT22;9179;50.968;3.134;2023-06-26T14:20:13;26.90;62.70
18105;DHT22;9179;50.968;3.134;2023-06-26T14:22:40;26.60;64.40
18105;DHT22;9179;50.968;3.134;2023-06-26T14:25:07;26.50;65.10
18105;DHT22;9179;50.968;3.134;2023-06-26T14:27:35;27.00;65.20
18105;DHT22;9179;50.968;3.134;2023-06-26T14:30:03;28.40;63.90
18105;DHT22;9179;50.968;3.134;2023-06-26T14:32:31;29.00;62.90
18105;DHT22;9179;50.968;3.134;2023-06-26T14:34:58;31.30;60.30
18105;DHT22;9179;50.968;3.134;2023-06-26T14:37:26;33.50;57.70
18105;DHT22;9179;50.968;3.134;2023-06-26T14:39:53;31.80;57.70
18105;DHT22;9179;50.968;3.134;2023-06-26T14:42:20;30.10;59.90
18105;DHT22;9179;50.968;3.134;2023-06-26T14:44:47;29.20;61.60
18105;DHT22;9179;50.968;3.134;2023-06-26T14:47:16;28.80;62.60
18105;DHT22;9179;50.968;3.134;2023-06-26T14:49:44;28.60;63.30
18105;DHT22;9179;50.968;3.134;2023-06-26T14:52:11;29.00;62.70
18105;DHT22;9179;50.968;3.134;2023-06-26T14:54:39;29.00;62.50
18105;DHT22;9179;50.968;3.134;2023-06-26T14:57:06;28.20;63.70
18105;DHT22;9179;50.968;3.134;2023-06-26T14:59:34;27.50;64.80
18105;DHT22;9179;50.968;3.134;2023-06-26T15:02:01;26.80;65.80
18105;DHT22;9179;50.968;3.134;2023-06-26T15:04:27;26.50;66.60
18105;DHT22;9179;50.968;3.134;2023-06-26T15:06:57;26.20;67.40
18105;DHT22;9179;50.968;3.134;2023-06-26T15:09:24;25.80;68.60
18105;DHT22;9179;50.968;3.134;2023-06-26T15:11:51;25.70;69.10
18105;DHT22;9179;50.968;3.134;2023-06-26T15:14:17;25.70;69.70
18105;DHT22;9179;50.968;3.134;2023-06-26T15:16:44;25.80;69.60
18105;DHT22;9179;50.968;3.134;2023-06-26T15:19:11;26.20;69.50
18105;DHT22;9179;50.968;3.134;2023-06-26T15:21:38;26.30;69.60
18105;DHT22;9179;50.968;3.134;2023-06-26T15:24:07;26.40;69.60
18105;DHT22;9179;50.968;3.134;2023-06-26T15:26:34;26.30;69.90
18105;DHT22;9179;50.968;3.134;2023-06-26T15:29:02;26.10;70.40
18105;DHT22;9179;50.968;3.134;2023-06-26T15:31:29;25.90;70.80
18105;DHT22;9179;50.968;3.134;2023-06-26T15:33:56;25.80;71.40
18105;DHT22;9179;50.968;3.134;2023-06-26T15:36:23;25.60;71.70
18105;DHT22;9179;50.968;3.134;2023-06-26T15:38:50;25.20;72.60
18105;DHT22;9179;50.968;3.134;2023-06-26T15:41:18;24.80;73.30
18105;DHT22;9179;50.968;3.134;2023-06-26T15:43:45;24.60;73.80
18105;DHT22;9179;50.968;3.134;2023-06-26T15:46:12;24.20;74.70
18105;DHT22;9179;50.968;3.134;2023-06-26T15:48:39;23.90;75.60
18105;DHT22;9179;50.968;3.134;2023-06-26T15:51:06;23.80;76.40
18105;DHT22;9179;50.968;3.134;2023-06-26T15:53:37;23.70;76.80
18105;DHT22;9179;50.968;3.134;2023-06-26T15:56:06;23.80;77.30